Extreme low temperature From: 25-02-2018 16:00 Until: 26-02-2018 16:00 warning for: Extreme low temperature Level: Yellow info button

Although rather usual in this region, locally or potentially dangerous phenomena are expected. (such as local winds, summer thunderstorms, rising streams or high waves) Be aware and pay attention to the latest weather updates, especially if you carry out activities exposed to weather or close to a stream or shoreline. 


Meteo18 Weather Cam more information Meteo18 Weather Cam


Thunder radar more information blitzortung!


Rain radar more information rain snow radar


Visit our other weather sites:

Template documentation
and downloads

And another site



Weather Underground History page Text

Daily Summary for December 19, 2017 Units:  Both    English   Metric
« Previous Day
Next Day »
Daily Weekly Monthly Yearly Custom
  High: Low: Average:
Temperature: TemperatureC °F /  -17.8 °C 2.2 °F /  -16.6 °C 4.2 °F /  -15.4 °C
Dew Point: DewpointC °F /  -17.8 °C 1.2 °F /  -17.1 °C 2.7 °F /  -16.3 °C
Humidity: Humidity % 85 % 90 %
Wind Speed: WindSpeedKMH mph /  0 km/h - 3.4 mph /  5.5 km/h
Wind Gust: WindSpeedGustKMH mph /  0 km/h - -
Wind:- - SW
Pressure: PressurehPa in /  0 hPa 1032.1 in /  34946.9 hPa -
Precipitation: 0.0 in /  0 mm    
Historical Graphs
 
 
Tabular Data for December 19, 2017
Time Temperature Dew Point Pressure Wind Wind Speed Wind Gust Humidity Rainfall Rate (Hourly)
TemperatureC °F /  -17.8 °C DewpointC °F /  -17.8 °C PressurehPa in /  0 hPa Calm     Humidity % HourlyPrecipMM in /  0 mm
00:07 5.6 °F /  -14.7 °C 3.3 °F /  -15.9 °C 1032.1 in /  34946.9 hPa NNE 6.4 mph /  10.3 km/h 12.9 mph /  20.8 km/h 85 % 0.0 in /  0 mm
00:12 5.5 °F /  -14.7 °C 3.3 °F /  -15.9 °C 1032.1 in /  34946.9 hPa NE 8.0 mph /  12.9 km/h 12.9 mph /  20.8 km/h 86 % 0.0 in /  0 mm
00:22 5.4 °F /  -14.8 °C 3.4 °F /  -15.9 °C 1032.4 in /  34957.1 hPa East 4.8 mph /  7.7 km/h 12.9 mph /  20.8 km/h 87 % 0.0 in /  0 mm
00:27 5.4 °F /  -14.8 °C 3.6 °F /  -15.8 °C 1032.4 in /  34957.1 hPa North 3.2 mph /  5.1 km/h 12.9 mph /  20.8 km/h 88 % 0.0 in /  0 mm
00:32 5.4 °F /  -14.8 °C 3.6 °F /  -15.8 °C 1032.4 in /  34957.1 hPa NNE 3.2 mph /  5.1 km/h 12.9 mph /  20.8 km/h 88 % 0.0 in /  0 mm
00:37 5.4 °F /  -14.8 °C 3.6 °F /  -15.8 °C 1032.4 in /  34957.1 hPa NNW 3.2 mph /  5.1 km/h 12.9 mph /  20.8 km/h 88 % 0.0 in /  0 mm
00:42 5.4 °F /  -14.8 °C 3.6 °F /  -15.8 °C 1032.4 in /  34957.1 hPa North 3.2 mph /  5.1 km/h 11.3 mph /  18.2 km/h 88 % 0.0 in /  0 mm
00:47 5.3 °F /  -14.8 °C 3.5 °F /  -15.8 °C 1032.4 in /  34957.1 hPa North 4.8 mph /  7.7 km/h 9.7 mph /  15.6 km/h 88 % 0.0 in /  0 mm
00:52 5.3 °F /  -14.8 °C 3.5 °F /  -15.8 °C 1032.4 in /  34957.1 hPa Calm   9.7 mph /  15.6 km/h 88 % 0.0 in /  0 mm
01:02 5.3 °F /  -14.8 °C 3.5 °F /  -15.8 °C 1032.4 in /  34957.1 hPa NNW 1.6 mph /  2.6 km/h 9.7 mph /  15.6 km/h 88 % 0.0 in /  0 mm
01:12 5.3 °F /  -14.8 °C 3.3 °F /  -15.9 °C 1032.7 in /  34967.2 hPa NNW 4.8 mph /  7.7 km/h 9.7 mph /  15.6 km/h 87 % 0.0 in /  0 mm
01:17 5.4 °F /  -14.8 °C 3.4 °F /  -15.9 °C 1032.7 in /  34967.2 hPa NNE 1.6 mph /  2.6 km/h 8.0 mph /  12.9 km/h 87 % 0.0 in /  0 mm
01:22 5.4 °F /  -14.8 °C 3.4 °F /  -15.9 °C 1032.7 in /  34967.2 hPa NNE 4.8 mph /  7.7 km/h 8.0 mph /  12.9 km/h 87 % 0.0 in /  0 mm
01:32 5.4 °F /  -14.8 °C 3.2 °F /  -16 °C 1032.7 in /  34967.2 hPa Calm   8.0 mph /  12.9 km/h 86 % 0.0 in /  0 mm
01:42 5.4 °F /  -14.8 °C 3.2 °F /  -16 °C 1032.7 in /  34967.2 hPa NNW 3.2 mph /  5.1 km/h 6.4 mph /  10.3 km/h 86 % 0.0 in /  0 mm
01:47 5.4 °F /  -14.8 °C 3.2 °F /  -16 °C 1032.7 in /  34967.2 hPa NW 1.6 mph /  2.6 km/h 9.7 mph /  15.6 km/h 86 % 0.0 in /  0 mm
01:52 5.3 °F /  -14.8 °C 3.3 °F /  -15.9 °C 1032.7 in /  34967.2 hPa NNW 1.6 mph /  2.6 km/h 9.7 mph /  15.6 km/h 87 % 0.0 in /  0 mm
01:57 5.3 °F /  -14.8 °C 3.3 °F /  -15.9 °C 1032.7 in /  34967.2 hPa NW 3.2 mph /  5.1 km/h 4.8 mph /  7.7 km/h 87 % 0.0 in /  0 mm
02:02 5.2 °F /  -14.9 °C 3.2 °F /  -16 °C 1032.7 in /  34967.2 hPa NW 1.6 mph /  2.6 km/h 4.8 mph /  7.7 km/h 87 % 0.0 in /  0 mm
02:07 5.2 °F /  -14.9 °C 3.2 °F /  -16 °C 1033.1 in /  34980.8 hPa Calm   4.8 mph /  7.7 km/h 87 % 0.0 in /  0 mm
02:12 5.2 °F /  -14.9 °C 3.4 °F /  -15.9 °C 1032.7 in /  34967.2 hPa Calm   4.8 mph /  7.7 km/h 88 % 0.0 in /  0 mm
02:17 5.2 °F /  -14.9 °C 3.4 °F /  -15.9 °C 1033.1 in /  34980.8 hPa Calm   4.8 mph /  7.7 km/h 88 % 0.0 in /  0 mm
02:22 5.2 °F /  -14.9 °C 3.4 °F /  -15.9 °C 1033.1 in /  34980.8 hPa NNW 1.6 mph /  2.6 km/h 4.8 mph /  7.7 km/h 88 % 0.0 in /  0 mm
02:27 5.2 °F /  -14.9 °C 3.4 °F /  -15.9 °C 1033.1 in /  34980.8 hPa NW 3.2 mph /  5.1 km/h 4.8 mph /  7.7 km/h 88 % 0.0 in /  0 mm
02:32 5.1 °F /  -14.9 °C 3.3 °F /  -15.9 °C 1033.1 in /  34980.8 hPa NW 1.6 mph /  2.6 km/h 4.8 mph /  7.7 km/h 88 % 0.0 in /  0 mm
02:37 5.1 °F /  -14.9 °C 3.3 °F /  -15.9 °C 1033.1 in /  34980.8 hPa North 1.6 mph /  2.6 km/h 4.8 mph /  7.7 km/h 88 % 0.0 in /  0 mm
02:42 5.1 °F /  -14.9 °C 3.3 °F /  -15.9 °C 1033.4 in /  34990.9 hPa NNW 3.2 mph /  5.1 km/h 4.8 mph /  7.7 km/h 88 % 0.0 in /  0 mm
02:47 5.2 °F /  -14.9 °C 3.4 °F /  -15.9 °C 1033.4 in /  34990.9 hPa NNE 3.2 mph /  5.1 km/h 6.4 mph /  10.3 km/h 88 % 0.0 in /  0 mm
02:52 5.1 °F /  -14.9 °C 3.3 °F /  -15.9 °C 1033.4 in /  34990.9 hPa North 1.6 mph /  2.6 km/h 6.4 mph /  10.3 km/h 88 % 0.0 in /  0 mm
02:57 5.1 °F /  -14.9 °C 3.3 °F /  -15.9 °C 1033.4 in /  34990.9 hPa NNW 3.2 mph /  5.1 km/h 6.4 mph /  10.3 km/h 88 % 0.0 in /  0 mm
03:02 5.1 °F /  -14.9 °C 3.3 °F /  -15.9 °C 1033.4 in /  34990.9 hPa Calm   6.4 mph /  10.3 km/h 88 % 0.0 in /  0 mm
03:07 5.1 °F /  -14.9 °C 3.3 °F /  -15.9 °C 1033.4 in /  34990.9 hPa NNE 1.6 mph /  2.6 km/h 4.8 mph /  7.7 km/h 88 % 0.0 in /  0 mm
03:12 5.1 °F /  -14.9 °C 3.3 °F /  -15.9 °C 1033.4 in /  34990.9 hPa NW 1.6 mph /  2.6 km/h 4.8 mph /  7.7 km/h 88 % 0.0 in /  0 mm
03:17 5.2 °F /  -14.9 °C 3.4 °F /  -15.9 °C 1033.4 in /  34990.9 hPa Calm   4.8 mph /  7.7 km/h 88 % 0.0 in /  0 mm
03:22 5.2 °F /  -14.9 °C 3.4 °F /  -15.9 °C 1033.4 in /  34990.9 hPa North 1.6 mph /  2.6 km/h 4.8 mph /  7.7 km/h 88 % 0.0 in /  0 mm
03:32 5.1 °F /  -14.9 °C 3.3 °F /  -15.9 °C 1033.4 in /  34990.9 hPa NNW 3.2 mph /  5.1 km/h 4.8 mph /  7.7 km/h 88 % 0.0 in /  0 mm
03:37 5.1 °F /  -14.9 °C 3.3 °F /  -15.9 °C 1033.4 in /  34990.9 hPa NW 1.6 mph /  2.6 km/h 3.2 mph /  5.1 km/h 88 % 0.0 in /  0 mm
03:47 5.1 °F /  -14.9 °C 3.3 °F /  -15.9 °C 1033.4 in /  34990.9 hPa WNW 3.2 mph /  5.1 km/h 6.4 mph /  10.3 km/h 88 % 0.0 in /  0 mm
03:52 5.1 °F /  -14.9 °C 3.3 °F /  -15.9 °C 1033.7 in /  35001.1 hPa WNW 1.6 mph /  2.6 km/h 6.4 mph /  10.3 km/h 88 % 0.0 in /  0 mm
03:57 5.1 °F /  -14.9 °C 3.4 °F /  -15.9 °C 1033.7 in /  35001.1 hPa WNW 6.4 mph /  10.3 km/h 8.0 mph /  12.9 km/h 89 % 0.0 in /  0 mm
04:02 5.1 °F /  -14.9 °C 3.4 °F /  -15.9 °C 1033.7 in /  35001.1 hPa NW 8.0 mph /  12.9 km/h 8.0 mph /  12.9 km/h 89 % 0.0 in /  0 mm
04:07 5.1 °F /  -14.9 °C 3.4 °F /  -15.9 °C 1033.7 in /  35001.1 hPa WNW 1.6 mph /  2.6 km/h 11.3 mph /  18.2 km/h 89 % 0.0 in /  0 mm
04:17 5.0 °F /  -15 °C 3.3 °F /  -15.9 °C 1033.7 in /  35001.1 hPa NNW 4.8 mph /  7.7 km/h 11.3 mph /  18.2 km/h 89 % 0.0 in /  0 mm
04:22 5.0 °F /  -15 °C 3.3 °F /  -15.9 °C 1033.7 in /  35001.1 hPa WNW 3.2 mph /  5.1 km/h 11.3 mph /  18.2 km/h 89 % 0.0 in /  0 mm
04:27 5.0 °F /  -15 °C 3.5 °F /  -15.8 °C 1033.7 in /  35001.1 hPa NW 1.6 mph /  2.6 km/h 11.3 mph /  18.2 km/h 90 % 0.0 in /  0 mm
04:42 4.9 °F /  -15.1 °C 3.4 °F /  -15.9 °C 1033.7 in /  35001.1 hPa NNW 1.6 mph /  2.6 km/h 9.7 mph /  15.6 km/h 90 % 0.0 in /  0 mm
04:47 4.9 °F /  -15.1 °C 3.4 °F /  -15.9 °C 1033.7 in /  35001.1 hPa NW 3.2 mph /  5.1 km/h 9.7 mph /  15.6 km/h 90 % 0.0 in /  0 mm
04:52 4.9 °F /  -15.1 °C 3.6 °F /  -15.8 °C 1033.7 in /  35001.1 hPa NNE 3.2 mph /  5.1 km/h 9.7 mph /  15.6 km/h 91 % 0.0 in /  0 mm
04:57 4.9 °F /  -15.1 °C 3.6 °F /  -15.8 °C 1033.7 in /  35001.1 hPa NNW 3.2 mph /  5.1 km/h 8.0 mph /  12.9 km/h 91 % 0.0 in /  0 mm
05:02 4.8 °F /  -15.1 °C 3.5 °F /  -15.8 °C 1033.7 in /  35001.1 hPa NNW 1.6 mph /  2.6 km/h 8.0 mph /  12.9 km/h 91 % 0.0 in /  0 mm
05:12 4.8 °F /  -15.1 °C 3.5 °F /  -15.8 °C 1034.1 in /  35014.6 hPa North 6.4 mph /  10.3 km/h 8.0 mph /  12.9 km/h 91 % 0.0 in /  0 mm
05:17 4.8 °F /  -15.1 °C 3.5 °F /  -15.8 °C 1034.1 in /  35014.6 hPa NNW 1.6 mph /  2.6 km/h 8.0 mph /  12.9 km/h 91 % 0.0 in /  0 mm
05:22 4.8 °F /  -15.1 °C 3.5 °F /  -15.8 °C 1034.1 in /  35014.6 hPa North 1.6 mph /  2.6 km/h 8.0 mph /  12.9 km/h 91 % 0.0 in /  0 mm
05:32 4.8 °F /  -15.1 °C 3.6 °F /  -15.8 °C 1033.7 in /  35001.1 hPa NNW 1.6 mph /  2.6 km/h 9.7 mph /  15.6 km/h 92 % 0.0 in /  0 mm
05:42 4.7 °F /  -15.2 °C 3.5 °F /  -15.8 °C 1033.7 in /  35001.1 hPa Calm   9.7 mph /  15.6 km/h 92 % 0.0 in /  0 mm
05:47 4.7 °F /  -15.2 °C 3.5 °F /  -15.8 °C 1034.1 in /  35014.6 hPa NW 1.6 mph /  2.6 km/h 6.4 mph /  10.3 km/h 92 % 0.0 in /  0 mm
05:52 4.7 °F /  -15.2 °C 3.5 °F /  -15.8 °C 1034.1 in /  35014.6 hPa Calm   6.4 mph /  10.3 km/h 92 % 0.0 in /  0 mm
05:57 4.7 °F /  -15.2 °C 3.5 °F /  -15.8 °C 1034.1 in /  35014.6 hPa Calm   3.2 mph /  5.1 km/h 92 % 0.0 in /  0 mm
06:02 4.7 °F /  -15.2 °C 3.5 °F /  -15.8 °C 1034.1 in /  35014.6 hPa NW 1.6 mph /  2.6 km/h 3.2 mph /  5.1 km/h 92 % 0.0 in /  0 mm
06:07 4.7 °F /  -15.2 °C 3.5 °F /  -15.8 °C 1034.4 in /  35024.8 hPa Calm   4.8 mph /  7.7 km/h 92 % 0.0 in /  0 mm
06:12 4.6 °F /  -15.2 °C 3.4 °F /  -15.9 °C 1034.4 in /  35024.8 hPa NW 1.6 mph /  2.6 km/h 4.8 mph /  7.7 km/h 92 % 0.0 in /  0 mm
06:17 4.6 °F /  -15.2 °C 3.4 °F /  -15.9 °C 1034.4 in /  35024.8 hPa NW 1.6 mph /  2.6 km/h 3.2 mph /  5.1 km/h 92 % 0.0 in /  0 mm
06:22 4.6 °F /  -15.2 °C 3.4 °F /  -15.9 °C 1034.1 in /  35014.6 hPa WNW 3.2 mph /  5.1 km/h 3.2 mph /  5.1 km/h 92 % 0.0 in /  0 mm
06:32 4.6 °F /  -15.2 °C 3.4 °F /  -15.9 °C 1034.4 in /  35024.8 hPa Calm   6.4 mph /  10.3 km/h 92 % 0.0 in /  0 mm
06:42 4.5 °F /  -15.3 °C 3.3 °F /  -15.9 °C 1034.4 in /  35024.8 hPa Calm   4.8 mph /  7.7 km/h 92 % 0.0 in /  0 mm
06:47 4.5 °F /  -15.3 °C 3.3 °F /  -15.9 °C 1034.4 in /  35024.8 hPa Calm   4.8 mph /  7.7 km/h 92 % 0.0 in /  0 mm
06:52 4.5 °F /  -15.3 °C 3.3 °F /  -15.9 °C 1034.4 in /  35024.8 hPa Calm   4.8 mph /  7.7 km/h 92 % 0.0 in /  0 mm
07:02 4.4 °F /  -15.3 °C 3.2 °F /  -16 °C 1034.1 in /  35014.6 hPa Calm   3.2 mph /  5.1 km/h 92 % 0.0 in /  0 mm
07:07 4.4 °F /  -15.3 °C 3.2 °F /  -16 °C 1034.1 in /  35014.6 hPa WNW 1.6 mph /  2.6 km/h 4.8 mph /  7.7 km/h 92 % 0.0 in /  0 mm
07:12 4.4 °F /  -15.3 °C 3.2 °F /  -16 °C 1034.4 in /  35024.8 hPa Calm   4.8 mph /  7.7 km/h 92 % 0.0 in /  0 mm
07:17 4.4 °F /  -15.3 °C 3.2 °F /  -16 °C 1034.8 in /  35038.3 hPa Calm   3.2 mph /  5.1 km/h 92 % 0.0 in /  0 mm
07:27 4.4 °F /  -15.3 °C 3.2 °F /  -16 °C 1034.8 in /  35038.3 hPa North 1.6 mph /  2.6 km/h 1.6 mph /  2.6 km/h 92 % 0.0 in /  0 mm
07:32 4.4 °F /  -15.3 °C 3.2 °F /  -16 °C 1034.8 in /  35038.3 hPa NW 3.2 mph /  5.1 km/h 3.2 mph /  5.1 km/h 92 % 0.0 in /  0 mm
07:37 4.3 °F /  -15.4 °C 3.1 °F /  -16.1 °C 1034.8 in /  35038.3 hPa Calm   3.2 mph /  5.1 km/h 92 % 0.0 in /  0 mm
07:42 4.3 °F /  -15.4 °C 3.1 °F /  -16.1 °C 1034.8 in /  35038.3 hPa NNW 1.6 mph /  2.6 km/h 3.2 mph /  5.1 km/h 92 % 0.0 in /  0 mm
07:47 4.3 °F /  -15.4 °C 3.1 °F /  -16.1 °C 1034.8 in /  35038.3 hPa NW 3.2 mph /  5.1 km/h 4.8 mph /  7.7 km/h 92 % 0.0 in /  0 mm
07:52 4.3 °F /  -15.4 °C 3.1 °F /  -16.1 °C 1034.8 in /  35038.3 hPa North 1.6 mph /  2.6 km/h 4.8 mph /  7.7 km/h 92 % 0.0 in /  0 mm
08:02 4.3 °F /  -15.4 °C 3.1 °F /  -16.1 °C 1034.8 in /  35038.3 hPa Calm   6.4 mph /  10.3 km/h 92 % 0.0 in /  0 mm
08:12 4.3 °F /  -15.4 °C 3.1 °F /  -16.1 °C 1035.1 in /  35048.5 hPa NW 3.2 mph /  5.1 km/h 6.4 mph /  10.3 km/h 92 % 0.0 in /  0 mm
08:17 4.3 °F /  -15.4 °C 3.1 °F /  -16.1 °C 1035.1 in /  35048.5 hPa NW 3.2 mph /  5.1 km/h 6.4 mph /  10.3 km/h 92 % 0.0 in /  0 mm
08:27 4.3 °F /  -15.4 °C 3.0 °F /  -16.1 °C 1035.1 in /  35048.5 hPa NNE 4.8 mph /  7.7 km/h 8.0 mph /  12.9 km/h 91 % 0.0 in /  0 mm
08:32 4.2 °F /  -15.4 °C 2.9 °F /  -16.2 °C 1035.4 in /  35058.6 hPa NNW 4.8 mph /  7.7 km/h 8.0 mph /  12.9 km/h 91 % 0.0 in /  0 mm
08:37 4.2 °F /  -15.4 °C 2.9 °F /  -16.2 °C 1035.4 in /  35058.6 hPa NNE 4.8 mph /  7.7 km/h 11.3 mph /  18.2 km/h 91 % 0.0 in /  0 mm
08:42 4.2 °F /  -15.4 °C 2.9 °F /  -16.2 °C 1035.4 in /  35058.6 hPa Calm   11.3 mph /  18.2 km/h 91 % 0.0 in /  0 mm
08:47 4.2 °F /  -15.4 °C 3.0 °F /  -16.1 °C 1035.4 in /  35058.6 hPa Calm   8.0 mph /  12.9 km/h 92 % 0.0 in /  0 mm
08:52 4.2 °F /  -15.4 °C 3.0 °F /  -16.1 °C 1035.4 in /  35058.6 hPa WNW 8.0 mph /  12.9 km/h 8.0 mph /  12.9 km/h 92 % 0.0 in /  0 mm
08:57 4.1 °F /  -15.5 °C 2.9 °F /  -16.2 °C 1035.4 in /  35058.6 hPa WNW 1.6 mph /  2.6 km/h 9.7 mph /  15.6 km/h 92 % 0.0 in /  0 mm
09:02 4.0 °F /  -15.6 °C 2.8 °F /  -16.2 °C 1035.4 in /  35058.6 hPa NW 4.8 mph /  7.7 km/h 9.7 mph /  15.6 km/h 92 % 0.0 in /  0 mm
09:12 3.9 °F /  -15.6 °C 2.7 °F /  -16.3 °C 1035.8 in /  35072.2 hPa WNW 1.6 mph /  2.6 km/h 9.7 mph /  15.6 km/h 92 % 0.0 in /  0 mm
09:17 3.9 °F /  -15.6 °C 2.7 °F /  -16.3 °C 1035.8 in /  35072.2 hPa NNW 4.8 mph /  7.7 km/h 6.4 mph /  10.3 km/h 92 % 0.0 in /  0 mm
09:22 3.8 °F /  -15.7 °C 2.6 °F /  -16.3 °C 1035.8 in /  35072.2 hPa NW 3.2 mph /  5.1 km/h 6.4 mph /  10.3 km/h 92 % 0.0 in /  0 mm
09:32 3.8 °F /  -15.7 °C 2.6 °F /  -16.3 °C 1035.8 in /  35072.2 hPa NNW 4.8 mph /  7.7 km/h 9.7 mph /  15.6 km/h 92 % 0.0 in /  0 mm
09:42 3.8 °F /  -15.7 °C 2.6 °F /  -16.3 °C 1035.8 in /  35072.2 hPa North 1.6 mph /  2.6 km/h 9.7 mph /  15.6 km/h 92 % 0.0 in /  0 mm
09:47 3.8 °F /  -15.7 °C 2.6 °F /  -16.3 °C 1035.8 in /  35072.2 hPa North 4.8 mph /  7.7 km/h 9.7 mph /  15.6 km/h 92 % 0.0 in /  0 mm
09:52 3.9 °F /  -15.6 °C 2.7 °F /  -16.3 °C 1035.8 in /  35072.2 hPa NNW 1.6 mph /  2.6 km/h 9.7 mph /  15.6 km/h 92 % 0.0 in /  0 mm
09:57 3.9 °F /  -15.6 °C 2.7 °F /  -16.3 °C 1036.1 in /  35082.3 hPa NNE 3.2 mph /  5.1 km/h 9.7 mph /  15.6 km/h 92 % 0.0 in /  0 mm
10:12 4.2 °F /  -15.4 °C 2.9 °F /  -16.2 °C 1036.1 in /  35082.3 hPa North 1.6 mph /  2.6 km/h 6.4 mph /  10.3 km/h 91 % 0.0 in /  0 mm
10:17 4.2 °F /  -15.4 °C 2.9 °F /  -16.2 °C 1036.1 in /  35082.3 hPa NNW 4.8 mph /  7.7 km/h 6.4 mph /  10.3 km/h 91 % 0.0 in /  0 mm
10:22 4.3 °F /  -15.4 °C 2.8 °F /  -16.2 °C 1036.1 in /  35082.3 hPa North 8.0 mph /  12.9 km/h 8.0 mph /  12.9 km/h 90 % 0.0 in /  0 mm
10:32 4.5 °F /  -15.3 °C 2.7 °F /  -16.3 °C 1036.5 in /  35095.9 hPa NNW 3.2 mph /  5.1 km/h 8.0 mph /  12.9 km/h 88 % 0.0 in /  0 mm
10:37 4.6 °F /  -15.2 °C 2.8 °F /  -16.2 °C 1036.5 in /  35095.9 hPa NE 3.2 mph /  5.1 km/h 11.3 mph /  18.2 km/h 88 % 0.0 in /  0 mm
10:47 4.8 °F /  -15.1 °C 2.8 °F /  -16.2 °C 1036.5 in /  35095.9 hPa NE 3.2 mph /  5.1 km/h 11.3 mph /  18.2 km/h 87 % 0.0 in /  0 mm
10:52 4.8 °F /  -15.1 °C 2.8 °F /  -16.2 °C 1036.8 in /  35106 hPa NE 1.6 mph /  2.6 km/h 11.3 mph /  18.2 km/h 87 % 0.0 in /  0 mm
10:57 4.8 °F /  -15.1 °C 2.8 °F /  -16.2 °C 1036.8 in /  35106 hPa NE 1.6 mph /  2.6 km/h 9.7 mph /  15.6 km/h 87 % 0.0 in /  0 mm
11:02 4.8 °F /  -15.1 °C 2.8 °F /  -16.2 °C 1037.1 in /  35116.2 hPa NNE 11.3 mph /  18.2 km/h 11.3 mph /  18.2 km/h 87 % 0.0 in /  0 mm
11:12 4.8 °F /  -15.1 °C 3.0 °F /  -16.1 °C 1037.1 in /  35116.2 hPa North 12.9 mph /  20.8 km/h 14.5 mph /  23.3 km/h 88 % 0.0 in /  0 mm
11:17 4.7 °F /  -15.2 °C 2.9 °F /  -16.2 °C 1037.1 in /  35116.2 hPa North 6.4 mph /  10.3 km/h 14.5 mph /  23.3 km/h 88 % 0.0 in /  0 mm
11:22 4.6 °F /  -15.2 °C 2.9 °F /  -16.2 °C 1037.1 in /  35116.2 hPa NNE 11.3 mph /  18.2 km/h 14.5 mph /  23.3 km/h 89 % 0.0 in /  0 mm
11:32 4.3 °F /  -15.4 °C 2.8 °F /  -16.2 °C 1037.1 in /  35116.2 hPa WNW 3.2 mph /  5.1 km/h 17.7 mph /  28.5 km/h 90 % 0.0 in /  0 mm
11:42 4.3 °F /  -15.4 °C 2.8 °F /  -16.2 °C 1037.1 in /  35116.2 hPa North 1.6 mph /  2.6 km/h 17.7 mph /  28.5 km/h 90 % 0.0 in /  0 mm
11:52 4.7 °F /  -15.2 °C 3.4 °F /  -15.9 °C 1037.1 in /  35116.2 hPa NNW 3.2 mph /  5.1 km/h 16.1 mph /  25.9 km/h 91 % 0.0 in /  0 mm
12:02 4.9 °F /  -15.1 °C 3.2 °F /  -16 °C 1036.8 in /  35106 hPa NNW 4.8 mph /  7.7 km/h 14.5 mph /  23.3 km/h 89 % 0.0 in /  0 mm
12:07 4.9 °F /  -15.1 °C 3.2 °F /  -16 °C 1036.8 in /  35106 hPa NNE 11.3 mph /  18.2 km/h 14.5 mph /  23.3 km/h 89 % 0.0 in /  0 mm
12:17 4.5 °F /  -15.3 °C 2.8 °F /  -16.2 °C 1036.8 in /  35106 hPa NE 6.4 mph /  10.3 km/h 16.1 mph /  25.9 km/h 89 % 0.0 in /  0 mm
12:22 4.5 °F /  -15.3 °C 3.0 °F /  -16.1 °C 1036.8 in /  35106 hPa North 6.4 mph /  10.3 km/h 16.1 mph /  25.9 km/h 90 % 0.0 in /  0 mm
12:27 4.5 °F /  -15.3 °C 3.0 °F /  -16.1 °C 1036.8 in /  35106 hPa North 8.0 mph /  12.9 km/h 14.5 mph /  23.3 km/h 90 % 0.0 in /  0 mm
12:32 4.6 °F /  -15.2 °C 3.1 °F /  -16.1 °C 1036.5 in /  35095.9 hPa NNE 9.7 mph /  15.6 km/h 14.5 mph /  23.3 km/h 90 % 0.0 in /  0 mm
12:37 4.4 °F /  -15.3 °C 2.7 °F /  -16.3 °C 1036.5 in /  35095.9 hPa WNW 3.2 mph /  5.1 km/h 17.7 mph /  28.5 km/h 89 % 0.0 in /  0 mm
12:42 4.4 °F /  -15.3 °C 2.9 °F /  -16.2 °C 1036.5 in /  35095.9 hPa NNE 3.2 mph /  5.1 km/h 17.7 mph /  28.5 km/h 90 % 0.0 in /  0 mm
12:47 4.6 °F /  -15.2 °C 3.1 °F /  -16.1 °C 1036.5 in /  35095.9 hPa NNE 8.0 mph /  12.9 km/h 17.7 mph /  28.5 km/h 90 % 0.0 in /  0 mm
12:52 4.7 °F /  -15.2 °C 3.2 °F /  -16 °C 1036.5 in /  35095.9 hPa NNE 6.4 mph /  10.3 km/h 17.7 mph /  28.5 km/h 90 % 0.0 in /  0 mm
13:02 4.7 °F /  -15.2 °C 3.0 °F /  -16.1 °C 1036.5 in /  35095.9 hPa North 4.8 mph /  7.7 km/h 17.7 mph /  28.5 km/h 89 % 0.0 in /  0 mm
13:07 4.7 °F /  -15.2 °C 3.0 °F /  -16.1 °C 1036.5 in /  35095.9 hPa NNE 9.7 mph /  15.6 km/h 17.7 mph /  28.5 km/h 89 % 0.0 in /  0 mm
13:12 4.8 °F /  -15.1 °C 3.1 °F /  -16.1 °C 1036.5 in /  35095.9 hPa North 6.4 mph /  10.3 km/h 17.7 mph /  28.5 km/h 89 % 0.0 in /  0 mm
13:22 4.7 °F /  -15.2 °C 3.0 °F /  -16.1 °C 1036.5 in /  35095.9 hPa North 6.4 mph /  10.3 km/h 16.1 mph /  25.9 km/h 89 % 0.0 in /  0 mm
13:37 5.0 °F /  -15 °C 3.3 °F /  -15.9 °C 1036.1 in /  35082.3 hPa NE 12.9 mph /  20.8 km/h 14.5 mph /  23.3 km/h 89 % 0.0 in /  0 mm
13:42 5.1 °F /  -14.9 °C 3.4 °F /  -15.9 °C 1036.1 in /  35082.3 hPa WNW 1.6 mph /  2.6 km/h 14.5 mph /  23.3 km/h 89 % 0.0 in /  0 mm
13:47 5.1 °F /  -14.9 °C 3.3 °F /  -15.9 °C 1036.5 in /  35095.9 hPa NNE 3.2 mph /  5.1 km/h 12.9 mph /  20.8 km/h 88 % 0.0 in /  0 mm
13:57 5.1 °F /  -14.9 °C 3.3 °F /  -15.9 °C 1036.1 in /  35082.3 hPa NE 1.6 mph /  2.6 km/h 11.3 mph /  18.2 km/h 88 % 0.0 in /  0 mm
14:02 5.1 °F /  -14.9 °C 3.1 °F /  -16.1 °C 1036.1 in /  35082.3 hPa NE 4.8 mph /  7.7 km/h 11.3 mph /  18.2 km/h 87 % 0.0 in /  0 mm
14:07 5.3 °F /  -14.8 °C 3.5 °F /  -15.8 °C 1036.1 in /  35082.3 hPa NNE 6.4 mph /  10.3 km/h 16.1 mph /  25.9 km/h 88 % 0.0 in /  0 mm
14:12 5.4 °F /  -14.8 °C 3.4 °F /  -15.9 °C 1036.1 in /  35082.3 hPa NNE 4.8 mph /  7.7 km/h 16.1 mph /  25.9 km/h 87 % 0.0 in /  0 mm
14:17 5.7 °F /  -14.6 °C 3.7 °F /  -15.7 °C 1036.1 in /  35082.3 hPa North 4.8 mph /  7.7 km/h 16.1 mph /  25.9 km/h 87 % 0.0 in /  0 mm
14:22 5.6 °F /  -14.7 °C 3.6 °F /  -15.8 °C 1036.1 in /  35082.3 hPa NNE 6.4 mph /  10.3 km/h 16.1 mph /  25.9 km/h 87 % 0.0 in /  0 mm
14:32 5.4 °F /  -14.8 °C 3.4 °F /  -15.9 °C 1036.1 in /  35082.3 hPa North 6.4 mph /  10.3 km/h 19.3 mph /  31.1 km/h 87 % 0.0 in /  0 mm
14:37 5.3 °F /  -14.8 °C 3.3 °F /  -15.9 °C 1036.1 in /  35082.3 hPa NNW 8.0 mph /  12.9 km/h 11.3 mph /  18.2 km/h 87 % 0.0 in /  0 mm
14:42 5.3 °F /  -14.8 °C 3.3 °F /  -15.9 °C 1036.1 in /  35082.3 hPa North 9.7 mph /  15.6 km/h 11.3 mph /  18.2 km/h 87 % 0.0 in /  0 mm
14:52 5.1 °F /  -14.9 °C 3.3 °F /  -15.9 °C 1036.1 in /  35082.3 hPa NNW 3.2 mph /  5.1 km/h 12.9 mph /  20.8 km/h 88 % 0.0 in /  0 mm
15:02 5.1 °F /  -14.9 °C 3.1 °F /  -16.1 °C 1036.1 in /  35082.3 hPa NE 4.8 mph /  7.7 km/h 14.5 mph /  23.3 km/h 87 % 0.0 in /  0 mm
15:12 5.1 °F /  -14.9 °C 3.1 °F /  -16.1 °C 1036.1 in /  35082.3 hPa NNE 1.6 mph /  2.6 km/h 11.3 mph /  18.2 km/h 87 % 0.0 in /  0 mm
15:17 4.9 °F /  -15.1 °C 2.9 °F /  -16.2 °C 1036.1 in /  35082.3 hPa NNE 6.4 mph /  10.3 km/h 14.5 mph /  23.3 km/h 87 % 0.0 in /  0 mm
15:22 4.8 °F /  -15.1 °C 2.8 °F /  -16.2 °C 1036.5 in /  35095.9 hPa NNW 3.2 mph /  5.1 km/h 14.5 mph /  23.3 km/h 87 % 0.0 in /  0 mm
15:27 4.7 °F /  -15.2 °C 2.7 °F /  -16.3 °C 1036.5 in /  35095.9 hPa NNE 1.6 mph /  2.6 km/h 12.9 mph /  20.8 km/h 87 % 0.0 in /  0 mm
15:32 4.8 °F /  -15.1 °C 2.8 °F /  -16.2 °C 1036.5 in /  35095.9 hPa NNE 4.8 mph /  7.7 km/h 12.9 mph /  20.8 km/h 87 % 0.0 in /  0 mm
15:37 4.8 °F /  -15.1 °C 2.8 °F /  -16.2 °C 1036.5 in /  35095.9 hPa NNW 4.8 mph /  7.7 km/h 11.3 mph /  18.2 km/h 87 % 0.0 in /  0 mm
15:42 4.9 °F /  -15.1 °C 2.9 °F /  -16.2 °C 1036.5 in /  35095.9 hPa NNW 3.2 mph /  5.1 km/h 11.3 mph /  18.2 km/h 87 % 0.0 in /  0 mm
15:47 4.9 °F /  -15.1 °C 2.9 °F /  -16.2 °C 1036.5 in /  35095.9 hPa NNE 11.3 mph /  18.2 km/h 12.9 mph /  20.8 km/h 87 % 0.0 in /  0 mm
15:52 4.8 °F /  -15.1 °C 2.8 °F /  -16.2 °C 1036.5 in /  35095.9 hPa North 8.0 mph /  12.9 km/h 12.9 mph /  20.8 km/h 87 % 0.0 in /  0 mm
16:02 4.6 °F /  -15.2 °C 2.6 °F /  -16.3 °C 1036.8 in /  35106 hPa NNW 1.6 mph /  2.6 km/h 16.1 mph /  25.9 km/h 87 % 0.0 in /  0 mm
16:07 4.6 °F /  -15.2 °C 2.8 °F /  -16.2 °C 1036.8 in /  35106 hPa ENE 8.0 mph /  12.9 km/h 12.9 mph /  20.8 km/h 88 % 0.0 in /  0 mm
16:12 4.4 °F /  -15.3 °C 2.6 °F /  -16.3 °C 1036.8 in /  35106 hPa NNE 8.0 mph /  12.9 km/h 12.9 mph /  20.8 km/h 88 % 0.0 in /  0 mm
16:17 4.4 °F /  -15.3 °C 2.7 °F /  -16.3 °C 1036.8 in /  35106 hPa NE 4.8 mph /  7.7 km/h 14.5 mph /  23.3 km/h 89 % 0.0 in /  0 mm
16:22 4.2 °F /  -15.4 °C 2.5 °F /  -16.4 °C 1036.8 in /  35106 hPa NE 11.3 mph /  18.2 km/h 14.5 mph /  23.3 km/h 89 % 0.0 in /  0 mm
16:32 4.1 °F /  -15.5 °C 2.5 °F /  -16.4 °C 1036.8 in /  35106 hPa North 3.2 mph /  5.1 km/h 14.5 mph /  23.3 km/h 89 % 0.0 in /  0 mm
16:37 4.1 °F /  -15.5 °C 2.6 °F /  -16.3 °C 1036.8 in /  35106 hPa NNE 8.0 mph /  12.9 km/h 12.9 mph /  20.8 km/h 90 % 0.0 in /  0 mm
16:42 4.0 °F /  -15.6 °C 2.5 °F /  -16.4 °C 1036.8 in /  35106 hPa North 8.0 mph /  12.9 km/h 12.9 mph /  20.8 km/h 90 % 0.0 in /  0 mm
16:47 4.0 °F /  -15.6 °C 2.5 °F /  -16.4 °C 1036.8 in /  35106 hPa NNE 3.2 mph /  5.1 km/h 12.9 mph /  20.8 km/h 90 % 0.0 in /  0 mm
16:52 3.9 °F /  -15.6 °C 2.4 °F /  -16.4 °C 1036.8 in /  35106 hPa NNW 9.7 mph /  15.6 km/h 12.9 mph /  20.8 km/h 90 % 0.0 in /  0 mm
17:02 3.8 °F /  -15.7 °C 2.3 °F /  -16.5 °C 1037.1 in /  35116.2 hPa NNW 8.0 mph /  12.9 km/h 11.3 mph /  18.2 km/h 90 % 0.0 in /  0 mm
17:07 3.7 °F /  -15.7 °C 2.2 °F /  -16.6 °C 1036.8 in /  35106 hPa NNW 8.0 mph /  12.9 km/h 14.5 mph /  23.3 km/h 90 % 0.0 in /  0 mm
17:12 3.7 °F /  -15.7 °C 2.4 °F /  -16.4 °C 1037.1 in /  35116.2 hPa NNW 4.8 mph /  7.7 km/h 14.5 mph /  23.3 km/h 91 % 0.0 in /  0 mm
17:17 3.6 °F /  -15.8 °C 2.3 °F /  -16.5 °C 1037.1 in /  35116.2 hPa NNW 3.2 mph /  5.1 km/h 14.5 mph /  23.3 km/h 91 % 0.0 in /  0 mm
17:22 3.6 °F /  -15.8 °C 2.3 °F /  -16.5 °C 1037.1 in /  35116.2 hPa NNW 8.0 mph /  12.9 km/h 14.5 mph /  23.3 km/h 91 % 0.0 in /  0 mm
17:32 3.4 °F /  -15.9 °C 2.1 °F /  -16.6 °C 1037.1 in /  35116.2 hPa NW 1.6 mph /  2.6 km/h 12.9 mph /  20.8 km/h 91 % 0.0 in /  0 mm
17:42 3.2 °F /  -16 °C 1.9 °F /  -16.7 °C 1037.1 in /  35116.2 hPa North 4.8 mph /  7.7 km/h 12.9 mph /  20.8 km/h 91 % 0.0 in /  0 mm
17:47 3.1 °F /  -16.1 °C 1.8 °F /  -16.8 °C 1037.1 in /  35116.2 hPa North 4.8 mph /  7.7 km/h 8.0 mph /  12.9 km/h 91 % 0.0 in /  0 mm
17:52 3.0 °F /  -16.1 °C 1.8 °F /  -16.8 °C 1037.1 in /  35116.2 hPa NNW 1.6 mph /  2.6 km/h 8.0 mph /  12.9 km/h 92 % 0.0 in /  0 mm
18:02 2.9 °F /  -16.2 °C 1.7 °F /  -16.8 °C 1037.1 in /  35116.2 hPa NNE 4.8 mph /  7.7 km/h 8.0 mph /  12.9 km/h 92 % 0.0 in /  0 mm
18:07 2.9 °F /  -16.2 °C 1.7 °F /  -16.8 °C 1037.5 in /  35129.8 hPa NNW 3.2 mph /  5.1 km/h 8.0 mph /  12.9 km/h 92 % 0.0 in /  0 mm
18:12 2.8 °F /  -16.2 °C 1.6 °F /  -16.9 °C 1037.5 in /  35129.8 hPa NNW 3.2 mph /  5.1 km/h 8.0 mph /  12.9 km/h 92 % 0.0 in /  0 mm
18:17 2.7 °F /  -16.3 °C 1.5 °F /  -16.9 °C 1037.5 in /  35129.8 hPa NNW 1.6 mph /  2.6 km/h 8.0 mph /  12.9 km/h 92 % 0.0 in /  0 mm
18:22 2.7 °F /  -16.3 °C 1.7 °F /  -16.8 °C 1037.5 in /  35129.8 hPa NNW 1.6 mph /  2.6 km/h 8.0 mph /  12.9 km/h 93 % 0.0 in /  0 mm
18:27 2.7 °F /  -16.3 °C 1.7 °F /  -16.8 °C 1037.5 in /  35129.8 hPa NNW 4.8 mph /  7.7 km/h 8.0 mph /  12.9 km/h 93 % 0.0 in /  0 mm
18:32 2.7 °F /  -16.3 °C 1.7 °F /  -16.8 °C 1037.5 in /  35129.8 hPa North 4.8 mph /  7.7 km/h 8.0 mph /  12.9 km/h 93 % 0.0 in /  0 mm
18:37 2.6 °F /  -16.3 °C 1.6 °F /  -16.9 °C 1037.5 in /  35129.8 hPa North 3.2 mph /  5.1 km/h 8.0 mph /  12.9 km/h 93 % 0.0 in /  0 mm
18:42 2.6 °F /  -16.3 °C 1.6 °F /  -16.9 °C 1037.5 in /  35129.8 hPa NNW 3.2 mph /  5.1 km/h 11.3 mph /  18.2 km/h 93 % 0.0 in /  0 mm
18:52 2.6 °F /  -16.3 °C 1.6 °F /  -16.9 °C 1037.8 in /  35139.9 hPa NNW 3.2 mph /  5.1 km/h 9.7 mph /  15.6 km/h 93 % 0.0 in /  0 mm
18:57 2.6 °F /  -16.3 °C 1.6 °F /  -16.9 °C 1037.5 in /  35129.8 hPa Calm   6.4 mph /  10.3 km/h 93 % 0.0 in /  0 mm
19:02 2.7 °F /  -16.3 °C 1.7 °F /  -16.8 °C 1037.8 in /  35139.9 hPa North 3.2 mph /  5.1 km/h 6.4 mph /  10.3 km/h 93 % 0.0 in /  0 mm
19:12 2.8 °F /  -16.2 °C 1.8 °F /  -16.8 °C 1037.5 in /  35129.8 hPa NNW 1.6 mph /  2.6 km/h 6.4 mph /  10.3 km/h 93 % 0.0 in /  0 mm
19:17 2.9 °F /  -16.2 °C 1.9 °F /  -16.7 °C 1037.5 in /  35129.8 hPa North 1.6 mph /  2.6 km/h 6.4 mph /  10.3 km/h 93 % 0.0 in /  0 mm
19:22 2.9 °F /  -16.2 °C 1.9 °F /  -16.7 °C 1037.5 in /  35129.8 hPa Calm   6.4 mph /  10.3 km/h 93 % 0.0 in /  0 mm
19:32 2.7 °F /  -16.3 °C 1.7 °F /  -16.8 °C 1037.5 in /  35129.8 hPa NW 1.6 mph /  2.6 km/h 3.2 mph /  5.1 km/h 93 % 0.0 in /  0 mm
19:37 2.8 °F /  -16.2 °C 1.8 °F /  -16.8 °C 1037.5 in /  35129.8 hPa NNW 1.6 mph /  2.6 km/h 6.4 mph /  10.3 km/h 93 % 0.0 in /  0 mm
19:42 2.7 °F /  -16.3 °C 1.7 °F /  -16.8 °C 1037.5 in /  35129.8 hPa North 1.6 mph /  2.6 km/h 6.4 mph /  10.3 km/h 93 % 0.0 in /  0 mm
19:47 2.7 °F /  -16.3 °C 1.7 °F /  -16.8 °C 1037.5 in /  35129.8 hPa NNW 1.6 mph /  2.6 km/h 6.4 mph /  10.3 km/h 93 % 0.0 in /  0 mm
19:57 2.6 °F /  -16.3 °C 1.6 °F /  -16.9 °C 1037.5 in /  35129.8 hPa North 3.2 mph /  5.1 km/h 4.8 mph /  7.7 km/h 93 % 0.0 in /  0 mm
20:12 2.6 °F /  -16.3 °C 1.6 °F /  -16.9 °C 1037.5 in /  35129.8 hPa NNW 4.8 mph /  7.7 km/h 6.4 mph /  10.3 km/h 93 % 0.0 in /  0 mm
20:17 2.5 °F /  -16.4 °C 1.5 °F /  -16.9 °C 1037.5 in /  35129.8 hPa North 3.2 mph /  5.1 km/h 6.4 mph /  10.3 km/h 93 % 0.0 in /  0 mm
20:22 2.5 °F /  -16.4 °C 1.5 °F /  -16.9 °C 1037.5 in /  35129.8 hPa North 1.6 mph /  2.6 km/h 6.4 mph /  10.3 km/h 93 % 0.0 in /  0 mm
20:27 2.5 °F /  -16.4 °C 1.5 °F /  -16.9 °C 1037.5 in /  35129.8 hPa NNW 1.6 mph /  2.6 km/h 6.4 mph /  10.3 km/h 93 % 0.0 in /  0 mm
20:32 2.4 °F /  -16.4 °C 1.4 °F /  -17 °C 1037.5 in /  35129.8 hPa North 3.2 mph /  5.1 km/h 6.4 mph /  10.3 km/h 93 % 0.0 in /  0 mm
20:42 2.4 °F /  -16.4 °C 1.4 °F /  -17 °C 1037.5 in /  35129.8 hPa NW 4.8 mph /  7.7 km/h 4.8 mph /  7.7 km/h 93 % 0.0 in /  0 mm
20:52 2.4 °F /  -16.4 °C 1.4 °F /  -17 °C 1037.5 in /  35129.8 hPa NW 1.6 mph /  2.6 km/h 4.8 mph /  7.7 km/h 93 % 0.0 in /  0 mm
20:57 2.4 °F /  -16.4 °C 1.4 °F /  -17 °C 1037.5 in /  35129.8 hPa NNW 3.2 mph /  5.1 km/h 4.8 mph /  7.7 km/h 93 % 0.0 in /  0 mm
21:02 2.4 °F /  -16.4 °C 1.4 °F /  -17 °C 1037.5 in /  35129.8 hPa NW 3.2 mph /  5.1 km/h 4.8 mph /  7.7 km/h 93 % 0.0 in /  0 mm
21:12 2.4 °F /  -16.4 °C 1.4 °F /  -17 °C 1037.8 in /  35139.9 hPa NNW 4.8 mph /  7.7 km/h 6.4 mph /  10.3 km/h 93 % 0.0 in /  0 mm
21:22 2.4 °F /  -16.4 °C 1.4 °F /  -17 °C 1037.8 in /  35139.9 hPa Calm   6.4 mph /  10.3 km/h 93 % 0.0 in /  0 mm
21:27 2.4 °F /  -16.4 °C 1.4 °F /  -17 °C 1037.8 in /  35139.9 hPa NW 1.6 mph /  2.6 km/h 6.4 mph /  10.3 km/h 93 % 0.0 in /  0 mm
21:32 2.3 °F /  -16.5 °C 1.3 °F /  -17.1 °C 1037.8 in /  35139.9 hPa NNE 3.2 mph /  5.1 km/h 6.4 mph /  10.3 km/h 93 % 0.0 in /  0 mm
21:37 2.3 °F /  -16.5 °C 1.3 °F /  -17.1 °C 1037.8 in /  35139.9 hPa Calm   4.8 mph /  7.7 km/h 93 % 0.0 in /  0 mm
21:42 2.2 °F /  -16.6 °C 1.2 °F /  -17.1 °C 1037.8 in /  35139.9 hPa North 4.8 mph /  7.7 km/h 4.8 mph /  7.7 km/h 93 % 0.0 in /  0 mm
21:52 2.2 °F /  -16.6 °C 1.2 °F /  -17.1 °C 1037.5 in /  35129.8 hPa NW 1.6 mph /  2.6 km/h 6.4 mph /  10.3 km/h 93 % 0.0 in /  0 mm
22:02 2.2 °F /  -16.6 °C 1.2 °F /  -17.1 °C 1037.5 in /  35129.8 hPa NNW 1.6 mph /  2.6 km/h 4.8 mph /  7.7 km/h 93 % 0.0 in /  0 mm
22:12 2.3 °F /  -16.5 °C 1.3 °F /  -17.1 °C 1037.5 in /  35129.8 hPa Calm   4.8 mph /  7.7 km/h 93 % 0.0 in /  0 mm
22:17 2.3 °F /  -16.5 °C 1.3 °F /  -17.1 °C 1037.5 in /  35129.8 hPa Calm   3.2 mph /  5.1 km/h 93 % 0.0 in /  0 mm
22:22 2.3 °F /  -16.5 °C 1.3 °F /  -17.1 °C 1037.5 in /  35129.8 hPa NNW 1.6 mph /  2.6 km/h 3.2 mph /  5.1 km/h 93 % 0.0 in /  0 mm
22:27 2.4 °F /  -16.4 °C 1.4 °F /  -17 °C 1037.5 in /  35129.8 hPa Calm   3.2 mph /  5.1 km/h 93 % 0.0 in /  0 mm
22:32 2.4 °F /  -16.4 °C 1.5 °F /  -16.9 °C 1037.5 in /  35129.8 hPa Calm   3.2 mph /  5.1 km/h 94 % 0.0 in /  0 mm
22:42 2.5 °F /  -16.4 °C 1.5 °F /  -16.9 °C 1037.5 in /  35129.8 hPa Calm   4.8 mph /  7.7 km/h 93 % 0.0 in /  0 mm
22:47 2.6 °F /  -16.3 °C 1.6 °F /  -16.9 °C 1037.5 in /  35129.8 hPa Calm   3.2 mph /  5.1 km/h 93 % 0.0 in /  0 mm
22:52 2.6 °F /  -16.3 °C 1.6 °F /  -16.9 °C 1037.5 in /  35129.8 hPa Calm   3.2 mph /  5.1 km/h 93 % 0.0 in /  0 mm
22:57 2.6 °F /  -16.3 °C 1.6 °F /  -16.9 °C 1037.5 in /  35129.8 hPa Calm   3.2 mph /  5.1 km/h 93 % 0.0 in /  0 mm
23:02 2.7 °F /  -16.3 °C 1.7 °F /  -16.8 °C 1037.5 in /  35129.8 hPa NW 1.6 mph /  2.6 km/h 3.2 mph /  5.1 km/h 93 % 0.0 in /  0 mm
23:12 2.8 °F /  -16.2 °C 1.8 °F /  -16.8 °C 1037.8 in /  35139.9 hPa North 4.8 mph /  7.7 km/h 4.8 mph /  7.7 km/h 93 % 0.0 in /  0 mm
23:17 2.9 °F /  -16.2 °C 1.9 °F /  -16.7 °C 1037.8 in /  35139.9 hPa Calm   8.0 mph /  12.9 km/h 93 % 0.0 in /  0 mm
23:22 2.9 °F /  -16.2 °C 1.9 °F /  -16.7 °C 1037.8 in /  35139.9 hPa NE 1.6 mph /  2.6 km/h 8.0 mph /  12.9 km/h 93 % 0.0 in /  0 mm
23:32 3.1 °F /  -16.1 °C 2.1 °F /  -16.6 °C 1037.8 in /  35139.9 hPa North 4.8 mph /  7.7 km/h 8.0 mph /  12.9 km/h 93 % 0.0 in /  0 mm
23:42 3.1 °F /  -16.1 °C 1.9 °F /  -16.7 °C 1037.8 in /  35139.9 hPa North 1.6 mph /  2.6 km/h 9.7 mph /  15.6 km/h 92 % 0.0 in /  0 mm
23:52 3.2 °F /  -16 °C 2.0 °F /  -16.7 °C 1038.1 in /  35150.1 hPa North 1.6 mph /  2.6 km/h 9.7 mph /  15.6 km/h 92 % 0.0 in /  0 mm
23:57 3.2 °F /  -16 °C 2.0 °F /  -16.7 °C 1038.1 in /  35150.1 hPa NNW 1.6 mph /  2.6 km/h 9.7 mph /  15.6 km/h 92 % 0.0 in /  0 mm
Meteo18
Compliments of Weather Underground - 4 mb

Script developed by  Jim McMurry - jmcmurry@mwt.net Adapted for the template by  Wim van der Kuil - Leuven-Template.eu

You find our weather info also at:

European Weather Network

Weather Underground

Equipment we use:

Weather-station
Davis Vue

Weather-program
Meteobridge

Weather-server
Raspberry PI 2 B+

Provider
1 and 1

Davis Vue

Meteobridge

Raspberry PI 2 B+

1 and 1